Estación Meteorológica Peña el Pijo (Robertgarden) [ 07/19/24 13:14:46 CEST ]

Fecha Hora Presion(HPa) Temp (°C) Humedad % Rocio (°C) Viento ( m/s) Direccion Lluvia 1Hora(mm) Lluvia 24H(mm) LLuvia Total(mm)
2013-Jan-30 01:01:13 1019.800 0.4 60 -6.4         178.19
2013-Jan-30 02:04:14 1019.300 0.1 62 -6.3         178.19
2013-Jan-30 03:01:12 1019.300 -0.8 65 -6.6         178.19
2013-Jan-30 04:01:16 1019.000 -0.5 69 -5.5         178.19
2013-Jan-30 05:01:18 1019.000 -0.2 65 -6.0         178.19
2013-Jan-30 06:01:14 1019.200 -0.7 65 -6.5         178.19
2013-Jan-30 07:01:14 1019.000 -1.1 67 -6.5         178.19
2013-Jan-30 08:01:12 1019.300 -1.6 68 -6.7         178.19
2013-Jan-30 09:01:13 1019.600 -1.7 71 -6.3         178.19
2013-Jan-30 10:01:14 1019.800 5.9 60 -1.3         178.19
2013-Jan-30 11:01:17 1019.700 11.6 42 -0.9         178.19
2013-Jan-30 12:01:16 1019.900 18.2 24 -2.9         178.19
2013-Jan-30 13:01:11 1019.400 20.1 18 -5.3         178.19
2013-Jan-30 14:01:20 1018.800 21.1 18 -4.5         178.19
2013-Jan-30 15:01:18 1018.700 20.5 17 -5.9 0.5 SSW     178.19
2013-Jan-30 16:01:16 1018.700 21.6 17 -5.0         178.19
2013-Jan-30 17:01:17 1019.200 17.3 21 -5.3 2.8 E     178.19
2013-Jan-30 18:01:14 1019.700 14.7 27 -4.3         178.19
2013-Jan-30 19:01:12 1020.100 10.3 34 -5.0         178.19
2013-Jan-30 20:01:13 1020.400 6.5 46 -4.3         178.19
2013-Jan-30 21:01:12 1020.500 5.6 46 -5.2         178.19
2013-Jan-30 22:01:11 1020.800 5.8 43 -5.9         178.19
2013-Jan-30 23:01:10 1021.100 6.4 39 -6.6         178.19

Temperatura Máxima:21°    Temperatura Mínima:-1°
Presión Máxima:1021.100 Hpa    Presión Mínima:1018.700 Hpa


Volver